createdAt,value
2023-04-23T00:01:50.246Z,44.26
2023-04-23T00:04:19.455Z,44.87
2023-04-23T00:06:48.096Z,45.29
2023-04-23T00:09:16.850Z,46.35
2023-04-23T00:11:44.980Z,45.72
2023-04-23T00:14:12.764Z,45.35
2023-04-23T00:16:40.996Z,45.39
2023-04-23T00:19:08.992Z,46.10
2023-04-23T00:21:36.414Z,45.29
2023-04-23T00:24:03.853Z,45.34
2023-04-23T00:26:31.493Z,45.40
2023-04-23T00:28:59.039Z,45.46
2023-04-23T00:31:28.209Z,45.68
2023-04-23T00:33:56.155Z,45.70
2023-04-23T00:36:23.819Z,45.92
2023-04-23T00:38:51.259Z,46.53
2023-04-23T00:41:19.512Z,45.87
2023-04-23T00:43:49.113Z,46.04
2023-04-23T00:46:17.397Z,45.98
2023-04-23T00:48:46.456Z,45.36
2023-04-23T00:51:13.938Z,45.61
2023-04-23T00:53:41.303Z,46.28
2023-04-23T00:56:09.652Z,46.72
2023-04-23T00:58:37.045Z,47.65
2023-04-23T01:01:04.989Z,47.36
2023-04-23T01:03:36.435Z,47.40
2023-04-23T01:06:04.616Z,47.49
2023-04-23T01:08:32.575Z,47.13
2023-04-23T01:11:00.666Z,46.63
2023-04-23T01:13:29.836Z,46.94
2023-04-23T01:15:57.530Z,46.87
2023-04-23T01:18:25.185Z,47.47
2023-04-23T01:20:52.619Z,47.33
2023-04-23T01:23:20.221Z,47.66
2023-04-23T01:25:48.026Z,47.64
2023-04-23T01:28:15.575Z,47.82
2023-04-23T01:30:44.016Z,48.11
2023-04-23T01:33:11.791Z,47.98
2023-04-23T01:35:41.337Z,47.81
2023-04-23T01:38:11.103Z,47.76
2023-04-23T01:40:38.799Z,47.75
2023-04-23T01:43:08.542Z,48.26
2023-04-23T01:45:36.255Z,48.58
2023-04-23T01:48:04.325Z,47.58
2023-04-23T01:50:31.849Z,48.33
2023-04-23T01:52:59.290Z,48.01
2023-04-23T01:55:27.406Z,48.55
2023-04-23T01:57:54.861Z,48.31
2023-04-23T02:00:22.269Z,48.51
2023-04-23T02:02:52.572Z,48.58
2023-04-23T02:05:20.806Z,49.09
2023-04-23T02:07:49.956Z,48.66
2023-04-23T02:10:18.692Z,48.58
2023-04-23T02:12:47.014Z,49.45
2023-04-23T02:15:15.817Z,49.83
2023-04-23T02:17:43.246Z,49.76
2023-04-23T02:20:11.447Z,49.48
2023-04-23T02:22:40.874Z,49.34
2023-04-23T02:25:09.287Z,49.02
2023-04-23T02:27:37.009Z,48.92
2023-04-23T02:30:04.822Z,48.86
2023-04-23T02:32:32.284Z,48.87
2023-04-23T02:35:02.029Z,48.57
2023-04-23T02:37:29.408Z,48.11
2023-04-23T02:39:56.790Z,48.97
2023-04-23T02:42:24.471Z,49.19
2023-04-23T02:44:51.882Z,48.79
2023-04-23T02:47:19.430Z,48.96
2023-04-23T02:49:47.226Z,48.55
2023-04-23T02:52:14.786Z,48.60
2023-04-23T02:54:42.427Z,48.99
2023-04-23T02:57:10.625Z,49.47
2023-04-23T02:59:38.651Z,48.94
2023-04-23T03:02:06.374Z,49.20
2023-04-23T03:04:34.394Z,48.89
2023-04-23T03:07:01.816Z,48.88
2023-04-23T03:09:29.218Z,48.50
2023-04-23T03:11:57.712Z,48.62
2023-04-23T03:14:25.378Z,49.58
2023-04-23T03:16:52.878Z,49.62
2023-04-23T03:19:20.756Z,49.52
2023-04-23T03:21:48.132Z,49.39
2023-04-23T03:24:16.170Z,49.19
2023-04-23T03:26:45.340Z,48.76
2023-04-23T03:29:12.691Z,48.59
2023-04-23T03:31:40.115Z,48.94
2023-04-23T03:34:08.470Z,48.79
2023-04-23T03:36:37.209Z,48.44
2023-04-23T03:39:04.745Z,49.10
2023-04-23T03:41:33.875Z,49.01
2023-04-23T03:44:35.978Z,49.41
2023-04-23T03:47:03.879Z,48.85
2023-04-23T03:49:31.863Z,49.50
2023-04-23T03:51:59.285Z,49.62
2023-04-23T03:54:28.280Z,49.48
2023-04-23T03:56:57.651Z,49.11
2023-04-23T03:59:25.221Z,49.18
2023-04-23T04:01:53.271Z,49.45
2023-04-23T04:04:21.320Z,50.07
2023-04-23T04:06:49.132Z,49.59
2023-04-23T04:09:17.176Z,49.22
2023-04-23T04:11:44.871Z,50.07
2023-04-23T04:14:12.516Z,50.49
2023-04-23T04:16:40.324Z,49.86
2023-04-23T04:19:07.970Z,49.86
2023-04-23T04:21:35.778Z,49.66
2023-04-23T04:24:04.737Z,48.81
2023-04-23T04:26:33.728Z,48.25
2023-04-23T04:29:04.658Z,47.77
2023-04-23T04:31:32.586Z,47.80
2023-04-23T04:33:59.960Z,47.86
2023-04-23T04:36:28.720Z,46.91
2023-04-23T04:38:58.596Z,46.12
2023-04-23T04:41:26.147Z,46.03
2023-04-23T04:43:54.727Z,45.60
2023-04-23T04:46:22.395Z,45.24
2023-04-23T04:48:50.193Z,44.59
2023-04-23T04:51:17.671Z,44.35
2023-04-23T04:53:45.306Z,44.47
2023-04-23T04:56:12.704Z,44.38
2023-04-23T04:58:40.359Z,43.23
2023-04-23T05:01:08.076Z,42.25
2023-04-23T05:03:37.200Z,42.56
2023-04-23T05:06:04.780Z,43.05
2023-04-23T05:08:32.495Z,41.83
2023-04-23T05:11:01.064Z,40.50
2023-04-23T05:13:28.540Z,40.06
2023-04-23T05:15:56.252Z,40.31
2023-04-23T05:18:23.600Z,39.53
2023-04-23T05:20:51.179Z,40.13
2023-04-23T05:23:19.323Z,40.23
2023-04-23T05:25:47.315Z,38.85
2023-04-23T05:28:15.421Z,37.11
2023-04-23T05:30:43.488Z,38.48
2023-04-23T05:33:13.497Z,38.06
2023-04-23T05:35:40.913Z,38.42
2023-04-23T05:38:09.065Z,39.92
2023-04-23T05:40:36.502Z,37.68
2023-04-23T05:43:03.857Z,37.69
2023-04-23T05:45:31.629Z,38.88
2023-04-23T05:47:59.948Z,37.88
2023-04-23T05:50:27.516Z,37.87
2023-04-23T05:52:55.362Z,38.10
2023-04-23T05:55:24.006Z,37.12
2023-04-23T05:57:51.509Z,37.47
2023-04-23T06:00:19.141Z,38.30
2023-04-23T06:02:47.891Z,38.02
2023-04-23T06:05:16.905Z,38.93
2023-04-23T06:07:44.445Z,39.61
2023-04-23T06:10:12.825Z,38.50
2023-04-23T06:12:42.134Z,38.86
2023-04-23T06:15:11.345Z,37.70
2023-04-23T06:17:39.180Z,37.87
2023-04-23T06:20:07.689Z,37.71
2023-04-23T06:22:35.070Z,38.60
2023-04-23T06:25:02.830Z,37.99
2023-04-23T06:27:30.925Z,38.84
2023-04-23T06:29:59.268Z,38.12
2023-04-23T06:32:27.009Z,37.54
2023-04-23T06:35:00.826Z,37.29
2023-04-23T06:37:31.795Z,37.45
2023-04-23T06:39:59.658Z,36.40
2023-04-23T06:42:27.230Z,37.42
2023-04-23T06:44:57.100Z,35.09
2023-04-23T06:47:24.691Z,36.39
2023-04-23T06:49:52.265Z,35.97
2023-04-23T06:52:19.936Z,36.40
2023-04-23T06:54:47.334Z,35.29
2023-04-23T06:57:14.746Z,34.41
2023-04-23T06:59:42.416Z,34.55
2023-04-23T07:02:10.050Z,33.37
2023-04-23T07:04:37.577Z,33.32
2023-04-23T07:07:05.880Z,33.11
2023-04-23T07:09:33.300Z,33.79
2023-04-23T07:12:01.620Z,32.93
2023-04-23T07:14:29.318Z,31.85
2023-04-23T07:16:57.432Z,31.67
2023-04-23T07:19:25.607Z,32.33
2023-04-23T07:21:53.793Z,30.93
2023-04-23T07:24:21.252Z,31.96
2023-04-23T07:26:48.654Z,33.04
2023-04-23T07:29:16.714Z,32.50
2023-04-23T07:31:44.623Z,33.00
2023-04-23T07:34:16.841Z,32.72
2023-04-23T07:36:44.431Z,32.51
2023-04-23T07:39:11.826Z,31.54
2023-04-23T07:41:42.321Z,32.13
2023-04-23T07:44:09.860Z,31.67
2023-04-23T07:46:37.291Z,30.71
2023-04-23T07:49:04.995Z,31.06
2023-04-23T07:51:32.444Z,30.66
2023-04-23T07:53:59.817Z,30.44
2023-04-23T07:56:27.516Z,30.15
2023-04-23T07:58:56.655Z,30.81
2023-04-23T08:01:24.633Z,30.69
2023-04-23T08:03:52.677Z,30.27
2023-04-23T08:06:20.250Z,28.71
2023-04-23T08:08:47.662Z,28.76
2023-04-23T08:11:15.630Z,29.23
2023-04-23T08:13:43.194Z,30.16
2023-04-23T08:16:11.704Z,30.17
2023-04-23T08:18:39.876Z,30.58
2023-04-23T08:21:07.573Z,30.45
2023-04-23T08:23:34.988Z,30.24
2023-04-23T08:26:02.923Z,28.86
2023-04-23T08:28:31.142Z,29.76
2023-04-23T08:30:58.612Z,30.96
2023-04-23T08:33:26.377Z,31.51
2023-04-23T08:35:53.798Z,31.40
2023-04-23T08:38:21.302Z,31.53
2023-04-23T08:40:49.530Z,31.14
2023-04-23T08:43:19.911Z,31.17
2023-04-23T08:45:48.698Z,31.07
2023-04-23T08:48:16.995Z,30.50
2023-04-23T08:50:44.762Z,30.90
2023-04-23T08:53:18.897Z,30.27
2023-04-23T08:55:47.407Z,30.17
2023-04-23T08:58:15.485Z,29.73
2023-04-23T09:00:43.839Z,28.39
2023-04-23T09:03:11.771Z,31.62
2023-04-23T09:05:40.061Z,30.28
2023-04-23T09:08:08.748Z,29.13
2023-04-23T09:10:38.022Z,30.66
2023-04-23T09:13:05.540Z,29.40
2023-04-23T09:15:33.016Z,28.89
2023-04-23T09:18:00.868Z,29.03
2023-04-23T09:20:28.415Z,28.88
2023-04-23T09:22:56.023Z,27.26
2023-04-23T09:25:24.586Z,27.04
2023-04-23T09:27:53.207Z,28.11
2023-04-23T09:30:20.955Z,27.96
2023-04-23T09:32:49.638Z,28.12
2023-04-23T09:35:19.624Z,27.21
2023-04-23T09:37:52.873Z,26.86
2023-04-23T09:40:23.514Z,26.53
2023-04-23T09:42:55.857Z,24.76
2023-04-23T09:45:26.795Z,26.51
2023-04-23T09:47:56.359Z,24.83
2023-04-23T09:50:37.945Z,26.46
2023-04-23T09:53:07.202Z,25.54
2023-04-23T09:55:39.360Z,24.71
2023-04-23T09:58:11.266Z,25.82
2023-04-23T10:00:40.108Z,24.75
2023-04-23T10:03:09.058Z,25.37
2023-04-23T10:08:16.121Z,25.90
2023-04-23T10:10:59.452Z,25.17
2023-04-23T10:13:32.658Z,24.90
2023-04-23T10:16:14.000Z,24.80
2023-04-23T10:18:46.560Z,26.02
2023-04-23T10:21:15.028Z,25.56
2023-04-23T10:23:44.561Z,25.11
2023-04-23T10:26:15.191Z,23.67
2023-04-23T10:28:46.448Z,24.36
2023-04-23T10:31:14.624Z,21.73
2023-04-23T10:33:56.170Z,20.38
2023-04-23T10:36:27.716Z,21.65
2023-04-23T10:39:00.362Z,20.83
2023-04-23T10:41:34.577Z,22.22
2023-04-23T10:44:03.719Z,21.44
2023-04-23T10:46:32.609Z,22.76
2023-04-23T10:49:16.320Z,23.47
2023-04-23T10:54:19.897Z,21.64
2023-04-23T10:56:58.570Z,19.86
2023-04-23T10:59:26.930Z,20.35
2023-04-23T11:01:58.075Z,19.99
2023-04-23T11:04:30.179Z,20.26
2023-04-23T11:07:05.312Z,19.06
2023-04-23T11:09:38.964Z,19.66
2023-04-23T11:12:28.286Z,18.19
2023-04-23T11:14:56.374Z,17.97
2023-04-23T11:17:24.912Z,18.32
2023-04-23T11:20:06.736Z,19.02
2023-04-23T11:22:39.217Z,19.56
2023-04-23T11:25:11.215Z,19.31
2023-04-23T11:27:45.877Z,19.62
2023-04-23T11:30:15.519Z,18.55
2023-04-23T11:32:50.613Z,19.85
2023-04-23T11:35:29.845Z,19.40
2023-04-23T11:37:57.581Z,20.57
2023-04-23T11:40:25.807Z,20.01
2023-04-23T11:42:57.692Z,21.03
2023-04-23T11:45:29.243Z,20.05
2023-04-23T11:47:58.073Z,20.01
2023-04-23T11:50:29.004Z,20.27
2023-04-23T11:52:56.870Z,19.92
2023-04-23T11:55:25.531Z,19.78
2023-04-23T11:57:53.336Z,23.25
2023-04-23T12:00:25.388Z,21.00
2023-04-23T12:02:58.001Z,21.40
2023-04-23T12:05:30.949Z,21.35
2023-04-23T12:08:17.824Z,20.70
2023-04-23T12:11:00.019Z,20.10
2023-04-23T12:13:34.569Z,19.57
2023-04-23T12:16:04.540Z,20.24
2023-04-23T12:18:37.903Z,21.47
2023-04-23T12:21:14.520Z,20.96
2023-04-23T12:23:44.789Z,20.59
2023-04-23T12:26:15.262Z,21.80
2023-04-23T12:29:01.492Z,21.23
2023-04-23T12:31:30.050Z,21.00
2023-04-23T12:34:05.406Z,20.81
2023-04-23T12:36:37.976Z,20.06
2023-04-23T12:39:26.116Z,19.55
2023-04-23T12:42:00.631Z,19.83
2023-04-23T12:44:29.697Z,21.31
2023-04-23T12:46:59.566Z,20.98
2023-04-23T12:49:27.534Z,23.07
2023-04-23T12:51:57.823Z,20.39
2023-04-23T12:54:29.736Z,21.23
2023-04-23T12:56:58.848Z,19.77
2023-04-23T12:59:26.527Z,21.04
2023-04-23T13:01:56.071Z,19.49
2023-04-23T13:04:25.055Z,18.71
2023-04-23T13:06:52.424Z,19.79
2023-04-23T13:09:19.846Z,20.32
2023-04-23T13:11:49.782Z,20.20
2023-04-23T13:14:35.090Z,18.60
2023-04-23T13:17:02.800Z,19.83
2023-04-23T13:19:30.308Z,19.93
2023-04-23T13:21:57.734Z,20.52
2023-04-23T13:24:25.668Z,20.10
2023-04-23T13:26:53.036Z,19.10
2023-04-23T13:29:20.428Z,19.25
2023-04-23T13:31:50.551Z,19.24
2023-04-23T13:34:18.458Z,19.73
2023-04-23T13:36:46.131Z,19.77
2023-04-23T13:39:14.310Z,19.56
2023-04-23T13:44:09.488Z,20.55
2023-04-23T13:46:37.197Z,20.43
2023-04-23T13:49:04.654Z,20.64
2023-04-23T13:51:35.644Z,20.35
2023-04-23T13:54:04.078Z,21.95
2023-04-23T13:56:31.756Z,21.27
2023-04-23T13:59:19.375Z,20.16
2023-04-23T14:01:50.286Z,19.68
2023-04-23T14:04:18.930Z,18.70
2023-04-23T14:06:46.415Z,18.45
2023-04-23T14:09:13.776Z,19.25
2023-04-23T14:11:41.702Z,19.81
2023-04-23T14:14:09.250Z,19.97
2023-04-23T14:16:36.700Z,19.90
2023-04-23T14:19:04.795Z,20.29
2023-04-23T14:21:32.198Z,20.86
2023-04-23T14:24:03.402Z,20.28
2023-04-23T14:26:44.784Z,21.23
2023-04-23T14:29:37.842Z,21.98
2023-04-23T14:32:06.461Z,21.14
2023-04-23T14:34:36.802Z,22.54
2023-04-23T14:37:04.424Z,21.58
2023-04-23T14:39:33.949Z,20.89
2023-04-23T14:42:01.351Z,20.80
2023-04-23T14:44:29.120Z,20.77
2023-04-23T14:46:58.011Z,20.25
2023-04-23T14:49:25.594Z,22.40
2023-04-23T14:51:54.594Z,21.60
2023-04-23T14:54:22.778Z,20.94
2023-04-23T14:56:54.281Z,21.37
2023-04-23T14:59:21.947Z,21.38
2023-04-23T15:01:49.486Z,21.34
2023-04-23T15:04:17.035Z,22.43
2023-04-23T15:06:44.864Z,21.10
2023-04-23T15:09:12.302Z,21.71
2023-04-23T15:11:41.734Z,21.04
2023-04-23T15:14:45.323Z,21.43
2023-04-23T15:17:12.871Z,20.46
2023-04-23T15:19:40.986Z,22.18
2023-04-23T15:22:08.598Z,20.93
2023-04-23T15:24:35.942Z,24.60
2023-04-23T15:27:03.747Z,21.66
2023-04-23T15:29:31.291Z,23.58
2023-04-23T15:31:59.641Z,20.72
2023-04-23T15:34:27.367Z,20.50
2023-04-23T15:36:54.814Z,22.10
2023-04-23T15:39:22.339Z,22.65
2023-04-23T15:41:51.473Z,21.26
2023-04-23T15:44:19.271Z,21.48
2023-04-23T15:46:46.705Z,24.66
2023-04-23T15:49:14.528Z,21.08
2023-04-23T15:51:42.341Z,21.17
2023-04-23T15:54:09.800Z,24.23
2023-04-23T15:56:37.658Z,26.99
2023-04-23T15:59:06.091Z,21.87
2023-04-23T16:01:33.784Z,27.69
2023-04-23T16:06:49.308Z,26.91
2023-04-23T16:09:16.931Z,25.06
2023-04-23T16:11:44.662Z,22.51
2023-04-23T16:14:12.296Z,22.11
2023-04-23T16:16:40.155Z,23.73
2023-04-23T16:19:07.642Z,24.00
2023-04-23T16:21:35.462Z,22.94
2023-04-23T16:24:03.816Z,28.20
2023-04-23T16:26:32.303Z,28.18
2023-04-23T16:29:11.276Z,29.69
2023-04-23T16:31:45.573Z,27.55
2023-04-23T16:34:13.100Z,29.44
2023-04-23T16:36:41.147Z,29.34
2023-04-23T16:39:09.536Z,29.81
2023-04-23T16:41:39.465Z,30.66
2023-04-23T16:44:07.014Z,30.56
2023-04-23T16:46:34.740Z,30.16
2023-04-23T16:49:03.285Z,32.08
2023-04-23T16:51:32.406Z,31.74
2023-04-23T16:54:00.057Z,31.44
2023-04-23T16:56:27.691Z,31.83
2023-04-23T16:58:55.164Z,30.98
2023-04-23T17:01:23.006Z,31.33
2023-04-23T17:03:50.998Z,31.27
2023-04-23T17:06:31.997Z,33.22
2023-04-23T17:09:01.601Z,32.41
2023-04-23T17:11:30.847Z,31.95
2023-04-23T17:13:59.208Z,31.32
2023-04-23T17:16:28.685Z,31.43
2023-04-23T17:18:58.139Z,32.32
2023-04-23T17:21:26.399Z,32.76
2023-04-23T17:23:54.656Z,33.08
2023-04-23T17:26:23.506Z,32.29
2023-04-23T17:28:51.919Z,32.35
2023-04-23T17:31:22.947Z,32.34
2023-04-23T17:33:55.095Z,32.36
2023-04-23T17:36:23.323Z,32.17
2023-04-23T17:38:51.620Z,32.55
2023-04-23T17:41:19.459Z,32.61
2023-04-23T17:43:47.718Z,31.86
2023-04-23T17:46:16.026Z,33.39
2023-04-23T17:48:45.280Z,32.80
2023-04-23T17:51:18.817Z,33.06
2023-04-23T17:53:51.471Z,33.19
2023-04-23T17:56:20.009Z,33.97
2023-04-23T17:58:49.919Z,33.96
2023-04-23T18:01:18.031Z,34.15
2023-04-23T18:03:48.034Z,34.13
2023-04-23T18:06:19.543Z,34.91
2023-04-23T18:08:51.154Z,34.75
2023-04-23T18:11:24.079Z,34.65
2023-04-23T18:13:54.064Z,35.47
2023-04-23T18:16:22.353Z,35.08
2023-04-23T18:18:50.400Z,35.27
2023-04-23T18:21:18.615Z,35.38
2023-04-23T18:23:47.126Z,34.24
2023-04-23T18:26:15.765Z,34.82
2023-04-23T18:28:48.684Z,35.08
2023-04-23T18:31:20.637Z,35.88
2023-04-23T18:33:54.815Z,36.13
2023-04-23T18:36:32.077Z,35.79
2023-04-23T18:39:01.708Z,36.29
2023-04-23T18:41:31.408Z,35.91
2023-04-23T18:44:00.586Z,36.22
2023-04-23T18:46:31.278Z,36.40
2023-04-23T18:49:01.397Z,36.29
2023-04-23T18:51:44.473Z,36.43
2023-04-23T18:54:15.521Z,36.59
2023-04-23T18:56:47.789Z,37.05
2023-04-23T18:59:15.958Z,36.83
2023-04-23T19:01:46.779Z,36.96
2023-04-23T19:04:15.627Z,37.19
2023-04-23T19:06:46.238Z,37.80
2023-04-23T19:09:14.925Z,37.61
2023-04-23T19:11:48.255Z,37.15
2023-04-23T19:14:17.100Z,37.73
2023-04-23T19:16:48.219Z,37.44
2023-04-23T19:19:17.422Z,37.24
2023-04-23T19:21:45.515Z,37.33
2023-04-23T19:24:13.596Z,37.85
2023-04-23T19:26:42.014Z,38.28
2023-04-23T19:29:10.636Z,37.84
2023-04-23T19:31:39.008Z,38.31
2023-04-23T19:34:10.552Z,38.31
2023-04-23T19:36:39.954Z,38.36
2023-04-23T19:39:10.447Z,38.38
2023-04-23T19:41:39.562Z,38.16
2023-04-23T19:44:12.946Z,38.32
2023-04-23T19:47:03.560Z,37.94
2023-04-23T19:49:39.287Z,38.54
2023-04-23T19:52:07.303Z,38.08
2023-04-23T19:54:35.609Z,38.76
2023-04-23T19:57:05.142Z,38.18
2023-04-23T19:59:33.991Z,38.07
2023-04-23T20:02:02.433Z,38.56
2023-04-23T20:04:31.354Z,38.60
2023-04-23T20:06:59.464Z,39.16
2023-04-23T20:09:28.724Z,38.87
2023-04-23T20:11:56.871Z,38.80
2023-04-23T20:14:25.449Z,39.61
2023-04-23T20:16:53.122Z,38.60
2023-04-23T20:19:25.984Z,38.17
2023-04-23T20:21:54.011Z,38.07
2023-04-23T20:24:21.901Z,38.42
2023-04-23T20:26:49.749Z,38.78
2023-04-23T20:29:17.331Z,39.58
2023-04-23T20:31:49.599Z,38.85
2023-04-23T20:34:18.377Z,39.25
2023-04-23T20:36:51.143Z,38.29
2023-04-23T20:39:21.101Z,38.76
2023-04-23T20:41:50.744Z,39.06
2023-04-23T20:44:22.347Z,38.87
2023-04-23T20:46:51.399Z,38.06
2023-04-23T20:49:20.873Z,39.46
2023-04-23T20:51:51.562Z,39.59
2023-04-23T20:54:18.977Z,39.18
2023-04-23T20:56:46.369Z,39.08
2023-04-23T20:59:14.496Z,39.26
2023-04-23T21:01:42.117Z,39.20
2023-04-23T21:04:10.926Z,40.44
2023-04-23T21:06:39.130Z,39.83
2023-04-23T21:09:06.949Z,39.58
2023-04-23T21:11:34.568Z,39.44
2023-04-23T21:14:02.242Z,39.80
2023-04-23T21:16:29.726Z,38.74
2023-04-23T21:18:57.230Z,38.12
2023-04-23T21:21:28.001Z,37.26
2023-04-23T21:23:56.518Z,36.82
2023-04-23T21:26:24.174Z,36.60
2023-04-23T21:28:51.815Z,37.47
2023-04-23T21:31:29.758Z,36.96
2023-04-23T21:33:57.518Z,37.29
2023-04-23T21:36:24.984Z,37.00
2023-04-23T21:38:53.139Z,36.27
2023-04-23T21:41:20.835Z,36.14
2023-04-23T21:43:48.256Z,37.26
2023-04-23T21:46:16.224Z,36.08
2023-04-23T21:48:43.889Z,36.27
2023-04-23T21:51:11.717Z,37.06
2023-04-23T21:53:39.844Z,37.53
2023-04-23T21:56:07.464Z,37.68
2023-04-23T21:58:36.095Z,37.09
2023-04-23T22:01:04.039Z,37.82
2023-04-23T22:03:38.671Z,37.76
2023-04-23T22:06:08.215Z,37.71
2023-04-23T22:08:38.140Z,38.71
2023-04-23T22:11:07.578Z,37.46
2023-04-23T22:13:36.357Z,39.18
2023-04-23T22:16:10.737Z,39.90
2023-04-23T22:18:47.269Z,40.29
2023-04-23T22:21:15.549Z,39.83
2023-04-23T22:23:43.125Z,39.62
2023-04-23T22:26:10.617Z,40.79
2023-04-23T22:28:38.420Z,40.78
2023-04-23T22:31:05.829Z,41.03
2023-04-23T22:33:33.205Z,41.33
2023-04-23T22:36:01.297Z,41.66
2023-04-23T22:38:29.830Z,41.54
2023-04-23T22:40:57.272Z,40.74
2023-04-23T22:43:24.956Z,41.84
2023-04-23T22:45:52.362Z,40.84
2023-04-23T22:48:19.824Z,40.12
2023-04-23T22:50:50.850Z,41.93
2023-04-23T22:53:19.643Z,41.32
2023-04-23T22:55:47.440Z,42.70
2023-04-23T22:58:15.285Z,42.33
2023-04-23T23:00:42.662Z,43.10
2023-04-23T23:03:10.504Z,43.13
2023-04-23T23:05:38.117Z,42.58
2023-04-23T23:08:06.756Z,41.72
2023-04-23T23:10:34.434Z,40.40
2023-04-23T23:13:02.099Z,41.72
2023-04-23T23:15:29.549Z,41.81
2023-04-23T23:17:57.860Z,41.04
2023-04-23T23:20:25.562Z,41.82
2023-04-23T23:22:52.971Z,43.48
2023-04-23T23:25:20.695Z,43.40
2023-04-23T23:27:48.075Z,42.30
2023-04-23T23:30:16.265Z,43.23
2023-04-23T23:32:43.989Z,42.70
2023-04-23T23:35:11.557Z,43.91
2023-04-23T23:37:38.929Z,43.27
2023-04-23T23:40:07.429Z,42.41
2023-04-23T23:42:35.133Z,43.33
2023-04-23T23:45:02.849Z,43.12
2023-04-23T23:47:31.166Z,43.29
2023-04-23T23:49:59.185Z,43.77
2023-04-23T23:52:26.610Z,43.39
2023-04-23T23:54:54.298Z,43.12
2023-04-23T23:57:21.834Z,44.00
2023-04-23T23:59:49.207Z,44.43
